Time;durP1;ratioP1;P1;durP2;ratioP2;P2;SDS_P1;SDS_P2;PMS_P1;PMS_P2;Temp;Humidity;BMP_temperature;BMP_pressure;BME280_temperature;BME280_humidity;BME280_pressure;Samples;Min_cycle;Max_cycle;Signal;HPM_P1;HPM_P2
2021/01/17 00:00:33;;;;;;;13.98;12.10;;;14.20;46.70;;;;;;6124034;23;20022;-88
2021/01/17 00:07:55;;;;;;;13.82;11.50;;;14.20;46.70;;;;;;6126197;23;20416;-89
2021/01/17 00:11:11;;;;;;;;;;;;;;;;;;;;;
2021/01/17 00:14:05;;;;;;;12.93;11.13;;;14.30;46.70;;;;;;6005178;23;20018;-88
2021/01/17 00:21:31;;;;;;;;;;;;;;;;;;;;;
2021/01/17 00:32:07;;;;;;;;;;;;;;;;;;;;;
2021/01/17 00:35:41;;;;;;;14.68;12.57;;;14.30;46.60;;;;;;6027505;23;20013;-89
2021/01/17 00:50:31;;;;;;;16.17;13.40;;;14.20;46.70;;;;;;5955024;24;20020;-89
2021/01/17 00:53:45;;;;;;;;;;;;;;;;;;;;;
2021/01/17 01:00:31;;;;;;;15.80;13.10;;;14.30;46.80;;;;;;6038851;23;20023;-88
2021/01/17 01:14:48;;;;;;;;;;;;;;;;;;;;;
2021/01/17 01:18:35;;;;;;;;;;;;;;;;;;;;;
2021/01/17 01:22:33;;;;;;;;;;;;;;;;;;;;;
2021/01/17 02:43:58;;;;;;;11.25;9.77;;;14.20;46.70;;;;;;5928347;24;20048;-89
2021/01/17 02:47:51;;;;;;;;;;;;;;;;;;;;;
2021/01/17 02:58:31;;;;;;;10.80;9.35;;;14.10;46.70;;;;;;5818416;24;20102;-88
2021/01/17 03:40:18;;;;;;;;;;;;;;;;;;;;;
2021/01/17 05:31:25;;;;;;;6.93;6.22;;;14.10;46.80;;;;;;6209767;22;1473016;-89
2021/01/17 05:38:17;;;;;;;9.15;6.47;;;14.20;47.20;;;;;;6038810;23;20046;-88
2021/01/17 05:40:42;;;;;;;11.13;5.38;;;14.20;47.50;;;;;;6031250;23;20109;-83
2021/01/17 05:43:09;;;;;;;9.73;5.88;;;14.20;47.90;;;;;;6136890;23;20441;-81
2021/01/17 05:45:36;;;;;;;17.13;6.35;;;14.30;48.50;;;;;;6171874;23;20028;-82
2021/01/17 05:48:05;;;;;;;12.48;6.30;;;14.30;48.70;;;;;;6181476;22;20344;-82
2021/01/17 05:50:51;;;;;;;7.45;5.05;;;14.40;48.90;;;;;;6252685;22;20015;-85
2021/01/17 05:53:24;;;;;;;9.98;4.68;;;14.40;49.30;;;;;;6274905;22;20309;-79
2021/01/17 05:55:50;;;;;;;7.93;6.60;;;14.50;49.50;;;;;;6289169;22;20018;-81
2021/01/17 05:58:26;;;;;;;9.63;6.28;;;14.60;49.80;;;;;;6250221;22;20061;-85
2021/01/17 06:00:59;;;;;;;9.55;5.47;;;14.70;50.30;;;;;;6248563;22;20023;-84
2021/01/17 06:03:34;;;;;;;10.82;6.18;;;14.80;50.50;;;;;;6223578;22;20016;-83
2021/01/17 06:06:01;;;;;;;10.75;7.15;;;14.80;50.70;;;;;;6223849;22;20098;-73
2021/01/17 06:08:28;;;;;;;9.50;6.55;;;14.80;50.30;;;;;;6286714;22;20079;-78
2021/01/17 06:11:13;;;;;;;8.60;5.50;;;14.90;50.60;;;;;;6286283;22;20019;-80
2021/01/17 06:13:40;;;;;;;11.82;5.32;;;14.90;50.90;;;;;;6286243;22;20003;-83
2021/01/17 06:16:29;;;;;;;10.57;5.40;;;14.90;51.20;;;;;;6224338;22;20049;-83
2021/01/17 06:18:57;;;;;;;9.52;4.93;;;15.00;51.10;;;;;;6249862;22;20011;-83
2021/01/17 06:21:24;;;;;;;7.88;5.15;;;15.00;51.00;;;;;;6249457;22;20019;-84
2021/01/17 06:23:58;;;;;;;7.38;4.97;;;15.10;50.80;;;;;;6224366;22;20015;-82
2021/01/17 06:26:32;;;;;;;7.95;5.03;;;15.10;50.70;;;;;;6249776;22;20065;-80
2021/01/17 06:28:59;;;;;;;8.18;4.78;;;15.20;50.60;;;;;;6286206;22;20078;-82
2021/01/17 06:31:31;;;;;;;11.35;5.03;;;15.20;50.70;;;;;;6261269;22;20007;-82
2021/01/17 06:34:13;;;;;;;9.52;5.13;;;15.30;50.90;;;;;;6279075;22;20011;-82
2021/01/17 06:36:40;;;;;;;8.30;5.55;;;15.30;50.60;;;;;;6252901;22;20003;-81
2021/01/17 06:39:23;;;;;;;13.38;6.15;;;15.40;50.50;;;;;;6252879;22;20061;-82
2021/01/17 06:41:59;;;;;;;8.80;5.20;;;15.40;50.40;;;;;;6262489;22;20076;-83
2021/01/17 06:44:30;;;;;;;12.20;6.38;;;15.40;50.40;;;;;;6226382;22;20008;-83
2021/01/17 06:46:59;;;;;;;12.88;6.38;;;15.40;50.60;;;;;;6227000;22;20018;-83
2021/01/17 06:49:30;;;;;;;13.23;6.85;;;15.30;50.80;;;;;;6226979;22;20008;-82
2021/01/17 06:51:56;;;;;;;13.85;7.32;;;15.30;50.80;;;;;;6252283;22;20004;-82
2021/01/17 06:54:32;;;;;;;15.05;8.52;;;15.30;50.20;;;;;;6279053;22;20018;-81
2021/01/17 07:01:42;;;;;;;17.42;7.43;;;15.30;49.20;;;;;;6146921;22;20335;-84
2021/01/17 08:23:05;;;;;;;11.18;7.50;;;14.70;50.90;;;;;;6272795;22;20027;-86
2021/01/17 08:25:55;;;;;;;11.07;8.30;;;14.70;51.20;;;;;;6249626;22;20301;-83
2021/01/17 08:28:38;;;;;;;14.85;8.20;;;14.80;50.90;;;;;;6251104;22;20014;-77
2021/01/17 08:31:33;;;;;;;10.40;6.13;;;14.90;50.60;;;;;;6287424;22;20008;-83
2021/01/17 08:34:49;;;;;;;8.18;6.32;;;15.00;51.00;;;;;;6288612;22;20031;-85
2021/01/17 08:48:36;;;;;;;8.50;6.22;;;15.30;50.30;;;;;;6276650;22;20077;-83
2021/01/17 08:51:13;;;;;;;8.73;6.53;;;15.40;50.60;;;;;;6277218;22;20011;-85
2021/01/17 08:59:50;;;;;;;13.30;6.60;;;15.40;50.40;;;;;;6217153;23;20477;-85
2021/01/17 09:02:41;;;;;;;11.65;7.05;;;15.40;50.80;;;;;;6215494;23;20015;-85
2021/01/17 09:09:27;;;;;;;7.93;5.47;;;15.50;50.70;;;;;;6193813;23;20067;-86
2021/01/17 09:12:19;;;;;;;11.95;6.85;;;15.60;50.90;;;;;;6192376;23;20019;-87
2021/01/17 09:18:43;;;;;;;12.95;7.65;;;15.70;50.90;;;;;;6218116;23;20065;-85
2021/01/17 09:21:09;;;;;;;15.65;9.00;;;15.70;50.60;;;;;;6218143;23;20019;-85
2021/01/17 09:23:42;;;;;;;13.68;7.65;;;15.80;50.20;;;;;;6192107;23;20302;-80
2021/01/17 09:30:49;;;;;;;8.38;6.38;;;15.90;50.60;;;;;;6165435;23;20066;-83
2021/01/17 09:36:57;;;;;;;14.32;6.30;;;15.90;50.70;;;;;;6218606;23;20302;-84
2021/01/17 09:39:34;;;;;;;15.75;5.78;;;15.90;51.10;;;;;;6136289;23;20016;-83
2021/01/17 09:42:12;;;;;;;14.82;5.53;;;16.10;51.10;;;;;;6192349;23;20398;-86
2021/01/17 09:44:47;;;;;;;14.10;6.32;;;16.20;51.10;;;;;;6102384;23;20005;-84
2021/01/17 09:47:36;;;;;;;13.88;6.53;;;16.20;50.80;;;;;;6078795;23;20006;-83
2021/01/17 09:50:36;;;;;;;10.50;6.57;;;16.30;50.50;;;;;;6105762;23;20020;-85
2021/01/17 09:53:23;;;;;;;12.15;6.53;;;16.30;50.30;;;;;;6080378;23;20013;-85
2021/01/17 09:56:23;;;;;;;11.98;7.05;;;16.30;50.20;;;;;;6078366;23;20097;-84
2021/01/17 09:59:22;;;;;;;10.25;6.45;;;16.40;50.10;;;;;;5998827;23;20059;-84
2021/01/17 10:02:35;;;;;;;11.43;6.68;;;16.30;50.00;;;;;;5961730;24;20050;-87
2021/01/17 10:05:41;;;;;;;11.05;6.00;;;16.40;49.80;;;;;;6072561;23;20014;-83
2021/01/17 10:08:39;;;;;;;;;;;;;;;;;;;;;
2021/01/17 10:11:21;;;;;;;9.20;6.03;;;16.40;49.70;;;;;;6072417;23;20023;-84
2021/01/17 10:13:58;;;;;;;9.52;6.35;;;16.40;49.70;;;;;;6048534;23;20100;-85
2021/01/17 10:16:26;;;;;;;11.25;6.75;;;16.40;49.50;;;;;;6166540;23;20071;-86
2021/01/17 10:30:08;;;;;;;17.10;7.82;;;16.10;47.60;;;;;;6217390;23;20012;-84
2021/01/17 10:33:12;;;;;;;13.00;8.10;;;15.80;49.10;;;;;;6192000;23;20013;-83
2021/01/17 10:44:40;;;;;;;13.02;6.22;;;15.90;50.00;;;;;;5934348;24;20371;-84
2021/01/17 10:55:35;;;;;;;;;;;;;;;;;;;;;
2021/01/17 11:11:55;;;;;;;7.13;3.95;;;16.30;50.40;;;;;;6180910;23;20016;-84
2021/01/17 11:18:11;;;;;;;14.77;4.20;;;16.40;50.40;;;;;;6095373;23;20015;-85
2021/01/17 11:21:17;;;;;;;15.32;5.70;;;16.50;50.70;;;;;;6072085;23;20017;-84
2021/01/17 11:24:51;;;;;;;13.43;4.28;;;16.50;50.50;;;;;;6072818;23;20094;-87
2021/01/17 11:27:38;;;;;;;21.60;5.05;;;16.40;51.20;;;;;;6064691;23;20010;-83
2021/01/17 11:37:52;;;;;;;11.35;4.57;;;16.20;51.90;;;;;;6038229;23;20007;-87
2021/01/17 11:40:21;;;;;;;12.25;4.07;;;16.20;52.20;;;;;;6003620;23;20038;-83
2021/01/17 11:42:48;;;;;;;14.68;3.58;;;16.10;52.40;;;;;;6093519;23;20019;-83
2021/01/17 11:45:18;;;;;;;11.05;3.53;;;16.10;52.60;;;;;;6195122;23;20087;-83
2021/01/17 11:47:44;;;;;;;12.93;3.80;;;16.10;52.60;;;;;;6196226;23;20397;-82
2021/01/17 11:50:20;;;;;;;12.48;3.80;;;16.10;52.50;;;;;;6196330;23;20068;-83
2021/01/17 11:53:15;;;;;;;11.52;3.53;;;16.10;52.50;;;;;;6196387;23;20019;-84
2021/01/17 11:55:49;;;;;;;9.48;3.28;;;16.20;52.30;;;;;;6170584;23;20019;-83
2021/01/17 11:58:16;;;;;;;10.48;3.60;;;16.20;52.30;;;;;;6196164;23;20154;-83
2021/01/17 12:00:53;;;;;;;11.93;4.43;;;16.20;52.20;;;;;;6195680;23;20016;-82
2021/01/17 12:03:29;;;;;;;9.57;3.70;;;16.20;52.10;;;;;;6209419;23;20030;-83
2021/01/17 12:06:09;;;;;;;8.35;3.70;;;16.20;52.10;;;;;;6191975;23;20087;-82
2021/01/17 12:09:02;;;;;;;11.43;3.47;;;16.10;52.00;;;;;;6220369;23;20008;-83
2021/01/17 12:11:36;;;;;;;8.10;3.20;;;16.10;51.90;;;;;;6215981;23;20301;-85
2021/01/17 12:14:08;;;;;;;8.25;3.47;;;16.10;51.90;;;;;;6205555;23;20008;-83
2021/01/17 12:16:43;;;;;;;7.00;3.45;;;16.10;51.90;;;;;;6196161;23;20455;-84
2021/01/17 12:19:12;;;;;;;10.23;3.28;;;16.10;51.90;;;;;;6219878;23;20083;-82
2021/01/17 12:21:38;;;;;;;10.85;3.20;;;16.10;51.90;;;;;;6221557;23;20042;-82
2021/01/17 12:24:06;;;;;;;8.20;3.53;;;16.10;51.90;;;;;;6196133;23;20413;-82
2021/01/17 12:26:32;;;;;;;7.85;2.85;;;16.10;51.90;;;;;;6220959;23;20004;-82
2021/01/17 12:28:58;;;;;;;5.82;3.10;;;16.10;51.90;;;;;;6192300;23;20008;-84
2021/01/17 12:31:25;;;;;;;8.70;2.88;;;16.00;51.90;;;;;;6195667;23;20409;-83
2021/01/17 12:33:52;;;;;;;9.25;3.47;;;16.00;51.90;;;;;;6191286;23;20009;-82
2021/01/17 12:36:22;;;;;;;7.18;3.17;;;16.00;52.00;;;;;;6195950;23;20012;-83
2021/01/17 12:38:49;;;;;;;7.68;2.90;;;16.00;52.00;;;;;;6215863;23;20005;-83
2021/01/17 12:41:21;;;;;;;11.30;3.17;;;16.00;52.00;;;;;;6190919;23;20008;-82
2021/01/17 12:43:48;;;;;;;9.50;3.03;;;16.00;52.10;;;;;;6228141;23;20008;-84
2021/01/17 12:46:15;;;;;;;9.15;3.03;;;15.90;52.10;;;;;;6223220;23;20337;-83
2021/01/17 12:48:41;;;;;;;8.85;2.78;;;15.90;52.10;;;;;;6197738;23;20020;-83
2021/01/17 12:51:08;;;;;;;7.03;2.78;;;15.90;52.10;;;;;;6196387;23;20012;-83
2021/01/17 12:53:36;;;;;;;8.93;3.08;;;15.90;52.20;;;;;;6196972;23;20012;-83
2021/01/17 12:56:03;;;;;;;6.63;2.55;;;15.90;52.20;;;;;;6220386;23;20004;-83
2021/01/17 12:58:28;;;;;;;7.25;3.00;;;15.90;52.20;;;;;;6197665;23;20008;-83
2021/01/17 13:00:55;;;;;;;7.57;2.85;;;15.90;52.20;;;;;;6218571;23;20468;-83
2021/01/17 13:03:20;;;;;;;7.38;3.35;;;15.90;52.20;;;;;;6222774;23;20015;-83
2021/01/17 13:05:50;;;;;;;7.47;3.00;;;15.90;52.30;;;;;;6192514;23;20009;-82
2021/01/17 13:08:17;;;;;;;7.90;2.78;;;15.80;52.20;;;;;;6217656;23;20013;-84
2021/01/17 13:10:43;;;;;;;7.43;2.50;;;15.80;52.20;;;;;;6192136;23;20016;-83
2021/01/17 13:13:11;;;;;;;10.10;3.20;;;15.80;52.30;;;;;;6197028;23;20009;-84
2021/01/17 13:15:41;;;;;;;8.65;2.90;;;15.80;52.30;;;;;;6197499;23;20042;-83
2021/01/17 13:18:08;;;;;;;7.55;2.50;;;15.80;52.30;;;;;;6195657;23;20031;-83
2021/01/17 13:20:34;;;;;;;8.20;3.15;;;15.80;52.40;;;;;;6197862;23;20012;-82
2021/01/17 13:23:00;;;;;;;7.50;2.40;;;15.80;52.40;;;;;;6219201;23;20115;-82
2021/01/17 13:25:26;;;;;;;8.25;2.08;;;15.80;52.40;;;;;;6197768;23;20047;-83
2021/01/17 13:27:53;;;;;;;8.18;2.60;;;15.80;52.40;;;;;;6192628;23;20084;-82
2021/01/17 13:30:19;;;;;;;6.60;2.50;;;15.80;52.40;;;;;;6197927;23;20012;-82
2021/01/17 13:32:46;;;;;;;10.45;2.55;;;15.80;52.40;;;;;;6217321;23;20047;-82
2021/01/17 13:35:12;;;;;;;8.98;2.22;;;15.80;52.40;;;;;;6221593;23;20091;-83
2021/01/17 13:37:39;;;;;;;8.88;2.72;;;15.80;53.10;;;;;;6197328;23;20394;-83
2021/01/17 13:40:07;;;;;;;8.88;2.85;;;15.80;52.40;;;;;;6222107;23;20012;-83
2021/01/17 13:42:34;;;;;;;9.25;2.63;;;15.80;52.40;;;;;;6222876;23;20016;-84
2021/01/17 13:45:00;;;;;;;8.32;2.65;;;15.70;52.40;;;;;;6219152;23;20012;-84
2021/01/17 13:47:27;;;;;;;8.63;2.95;;;15.80;52.50;;;;;;6222634;23;20393;-83
2021/01/17 13:50:04;;;;;;;8.25;3.03;;;15.80;52.50;;;;;;6193019;23;20043;-83
2021/01/17 13:52:30;;;;;;;6.22;2.28;;;15.80;52.50;;;;;;6222614;23;20016;-83
2021/01/17 13:54:57;;;;;;;9.13;2.38;;;15.70;52.50;;;;;;6218825;23;20035;-82
2021/01/17 13:57:24;;;;;;;7.78;2.58;;;15.70;52.50;;;;;;6222268;23;20008;-83
2021/01/17 13:59:51;;;;;;;9.65;2.58;;;15.70;52.50;;;;;;6197437;23;20091;-83
2021/01/17 14:02:18;;;;;;;7.40;2.40;;;15.70;52.60;;;;;;6191484;23;20043;-83
2021/01/17 14:04:44;;;;;;;5.57;2.40;;;15.70;52.60;;;;;;6192277;23;20285;-83
2021/01/17 14:07:12;;;;;;;7.55;2.55;;;15.70;52.70;;;;;;6195592;23;20035;-82
2021/01/17 14:09:38;;;;;;;9.60;2.67;;;15.70;52.60;;;;;;6222159;23;20012;-82
2021/01/17 14:12:09;;;;;;;7.18;2.28;;;15.70;52.70;;;;;;6195033;23;20016;-83
2021/01/17 14:14:36;;;;;;;9.82;3.00;;;15.70;52.60;;;;;;6196950;23;20059;-85
2021/01/17 14:17:03;;;;;;;8.90;2.20;;;15.70;52.60;;;;;;6218951;23;20005;-82
2021/01/17 14:19:29;;;;;;;8.85;2.38;;;15.70;52.60;;;;;;6196615;23;20004;-83
2021/01/17 14:21:54;;;;;;;7.63;1.90;;;15.70;52.70;;;;;;6192554;23;20015;-83
2021/01/17 14:24:20;;;;;;;6.18;2.30;;;15.70;52.70;;;;;;6197047;23;20473;-83
2021/01/17 14:26:47;;;;;;;10.48;2.72;;;15.70;52.70;;;;;;6191587;23;20009;-83
2021/01/17 14:29:15;;;;;;;7.13;2.25;;;15.70;52.70;;;;;;6222164;23;20062;-84
2021/01/17 14:31:46;;;;;;;9.35;2.25;;;15.70;52.70;;;;;;6196279;23;20301;-82
2021/01/17 14:34:13;;;;;;;6.80;2.40;;;15.70;52.70;;;;;;6221383;23;20004;-83
2021/01/17 14:36:44;;;;;;;9.82;2.55;;;15.70;52.70;;;;;;6196354;23;20019;-84
2021/01/17 14:39:14;;;;;;;9.77;2.50;;;15.70;52.70;;;;;;6195914;23;20088;-83
2021/01/17 14:41:41;;;;;;;8.48;2.35;;;15.70;52.70;;;;;;6196270;23;20019;-84
2021/01/17 14:44:09;;;;;;;6.45;2.03;;;15.70;52.70;;;;;;6195568;23;20302;-83
2021/01/17 14:46:42;;;;;;;9.60;2.38;;;15.70;52.80;;;;;;6196569;23;20040;-85
2021/01/17 14:49:10;;;;;;;15.27;3.42;;;15.70;52.70;;;;;;6194137;23;20016;-84
2021/01/17 14:51:36;;;;;;;11.65;3.08;;;15.70;52.70;;;;;;6196129;23;20355;-82
2021/01/17 15:05:12;;;;;;;16.33;3.25;;;15.60;53.20;;;;;;6236433;22;20471;-87
2021/01/17 15:07:38;;;;;;;17.30;3.65;;;15.60;53.50;;;;;;6204504;23;20015;-83
2021/01/17 15:11:02;;;;;;;17.95;3.05;;;15.60;54.20;;;;;;6245939;23;20030;-88
2021/01/17 15:13:36;;;;;;;20.20;4.05;;;15.70;54.60;;;;;;6184400;23;20472;-82
2021/01/17 15:16:05;;;;;;;23.88;4.93;;;15.70;55.10;;;;;;6219779;23;20032;-80
2021/01/17 15:18:34;;;;;;;20.90;4.38;;;15.70;56.30;;;;;;6248568;23;20034;-86
2021/01/17 15:21:37;;;;;;;25.25;4.25;;;15.70;56.50;;;;;;6221936;23;20016;-84
2021/01/17 15:24:24;;;;;;;20.25;4.38;;;15.70;56.20;;;;;;6219152;23;20016;-78
2021/01/17 15:26:53;;;;;;;22.50;4.25;;;15.70;56.10;;;;;;6258415;22;20087;-80
2021/01/17 15:29:51;;;;;;;18.60;4.10;;;15.60;56.40;;;;;;6248045;22;20058;-82
2021/01/17 15:33:11;;;;;;;17.63;4.22;;;15.60;57.50;;;;;;6228174;23;20443;-84
2021/01/17 15:35:44;;;;;;;24.35;5.15;;;15.50;58.60;;;;;;6246320;23;20053;-82
2021/01/17 15:39:01;;;;;;;21.70;4.50;;;15.50;58.80;;;;;;6221565;23;20083;-83
2021/01/17 15:41:34;;;;;;;30.08;5.20;;;15.60;60.10;;;;;;6096351;23;20117;-82
2021/01/17 15:47:50;;;;;;;23.02;4.72;;;15.70;63.30;;;;;;6038352;23;20015;-85
2021/01/17 15:57:46;;;;;;;20.50;4.32;;;15.70;62.40;;;;;;6038732;23;20019;-82
2021/01/17 16:04:21;;;;;;;21.10;5.27;;;15.90;64.10;;;;;;6190923;23;20603;-85
2021/01/17 16:11:12;;;;;;;;;;;16.00;63.90;;;;;;6214814;22;20069;-85
2021/01/17 16:13:45;;;;;;;16.27;3.30;;;16.00;62.10;;;;;;6188455;23;20313;-87
2021/01/17 16:16:16;;;;;;;16.23;4.53;;;16.00;62.30;;;;;;6190402;23;20091;-84
2021/01/17 16:18:46;;;;;;;17.38;3.65;;;16.00;62.20;;;;;;6236693;22;20033;-85
2021/01/17 16:21:23;;;;;;;17.23;3.85;;;16.10;62.10;;;;;;6225600;22;20019;-84
2021/01/17 16:24:05;;;;;;;15.00;3.92;;;16.10;61.90;;;;;;6226335;22;20022;-86
2021/01/17 16:26:31;;;;;;;12.02;2.78;;;16.20;61.70;;;;;;6226236;22;20014;-82
2021/01/17 16:28:57;;;;;;;16.55;3.65;;;16.20;61.90;;;;;;6262390;22;20297;-83
2021/01/17 16:31:36;;;;;;;15.60;3.15;;;16.40;61.10;;;;;;6226834;22;20397;-83
2021/01/17 16:34:01;;;;;;;12.07;3.00;;;16.40;60.60;;;;;;6226567;22;20007;-85
2021/01/17 16:36:27;;;;;;;12.82;2.70;;;16.40;60.40;;;;;;6226690;22;20093;-83
2021/01/17 16:38:53;;;;;;;14.55;4.00;;;16.50;60.30;;;;;;6252328;22;20078;-83
2021/01/17 16:41:19;;;;;;;12.05;2.85;;;16.50;60.10;;;;;;6279046;22;20105;-86
2021/01/17 16:43:45;;;;;;;15.48;3.60;;;16.60;59.90;;;;;;6227357;22;20300;-85
2021/01/17 16:46:11;;;;;;;17.27;3.35;;;16.60;59.70;;;;;;6226391;22;20416;-85
2021/01/17 16:48:36;;;;;;;19.30;3.35;;;16.50;59.50;;;;;;6226423;22;20090;-83
2021/01/17 16:51:03;;;;;;;14.45;3.70;;;16.50;59.30;;;;;;6226342;22;20023;-82
2021/01/17 16:53:29;;;;;;;11.85;3.03;;;16.50;59.20;;;;;;6225761;22;20012;-84
2021/01/17 16:55:55;;;;;;;13.60;3.45;;;16.50;59.20;;;;;;6226034;22;20031;-82
2021/01/17 16:58:20;;;;;;;21.08;3.60;;;16.50;59.10;;;;;;6226105;22;20401;-83
2021/01/17 17:00:46;;;;;;;16.88;3.50;;;16.60;59.00;;;;;;6251804;22;20007;-82
2021/01/17 17:03:12;;;;;;;13.73;3.75;;;16.60;58.80;;;;;;6251036;22;20011;-84
2021/01/17 17:05:39;;;;;;;22.30;3.60;;;16.60;58.60;;;;;;6246261;23;20008;-82
2021/01/17 17:08:05;;;;;;;15.82;3.65;;;16.60;58.30;;;;;;6249313;22;20019;-83
2021/01/17 17:10:31;;;;;;;20.17;3.97;;;16.60;58.10;;;;;;6226306;22;20027;-84
2021/01/17 17:15:56;;;;;;;17.15;3.00;;;16.70;57.80;;;;;;6250496;22;20423;-83
2021/01/17 17:18:22;;;;;;;17.02;3.20;;;16.60;57.70;;;;;;6251705;22;20003;-83
2021/01/17 17:20:48;;;;;;;14.60;3.75;;;16.60;57.70;;;;;;6261644;22;20004;-84
2021/01/17 17:23:14;;;;;;;19.92;3.15;;;16.60;57.50;;;;;;6251228;22;20035;-84
2021/01/17 17:25:39;;;;;;;19.80;3.75;;;16.70;57.50;;;;;;6251744;22;20011;-84
2021/01/17 17:28:06;;;;;;;13.57;3.15;;;16.70;57.30;;;;;;6279467;22;20091;-83
2021/01/17 17:30:31;;;;;;;13.93;3.00;;;16.60;57.20;;;;;;6227649;22;20018;-84
2021/01/17 17:32:57;;;;;;;15.25;3.58;;;16.60;57.10;;;;;;6253556;22;20024;-83
2021/01/17 17:35:23;;;;;;;14.18;3.10;;;16.60;57.00;;;;;;6253014;22;20297;-85
2021/01/17 17:37:51;;;;;;;17.25;3.67;;;16.60;56.90;;;;;;6227646;22;20007;-85
2021/01/17 17:40:17;;;;;;;12.02;2.50;;;16.60;56.80;;;;;;6253043;22;20014;-83
2021/01/17 17:42:43;;;;;;;12.82;2.75;;;16.60;56.70;;;;;;6263681;22;20031;-84
2021/01/17 17:45:09;;;;;;;10.85;2.72;;;16.60;56.70;;;;;;6253253;22;20344;-85
2021/01/17 17:47:38;;;;;;;16.13;3.17;;;16.60;56.50;;;;;;6227148;22;20007;-83
2021/01/17 17:50:04;;;;;;;12.55;3.03;;;16.50;56.40;;;;;;6228100;22;20270;-84
2021/01/17 17:52:32;;;;;;;19.42;3.58;;;16.50;56.30;;;;;;6227672;22;20015;-83
2021/01/17 17:55:00;;;;;;;11.85;2.95;;;16.50;56.30;;;;;;6228206;22;20012;-84
2021/01/17 17:57:25;;;;;;;12.15;3.42;;;16.50;56.30;;;;;;6252786;22;20011;-84
2021/01/17 17:59:51;;;;;;;8.88;2.67;;;16.50;56.20;;;;;;6227850;22;20007;-86
2021/01/17 18:02:19;;;;;;;12.40;2.88;;;16.50;56.10;;;;;;6227601;22;20008;-84
2021/01/17 18:04:45;;;;;;;10.45;2.88;;;16.40;56.00;;;;;;6227381;22;20340;-87
2021/01/17 18:07:11;;;;;;;11.02;2.65;;;16.40;55.90;;;;;;6253162;22;20011;-85
2021/01/17 18:09:37;;;;;;;10.80;2.92;;;16.40;55.90;;;;;;6252897;22;20004;-83
2021/01/17 18:12:03;;;;;;;12.30;2.75;;;16.40;55.90;;;;;;6227998;22;20320;-84
2021/01/17 18:14:31;;;;;;;11.75;3.38;;;16.40;55.80;;;;;;6226924;22;20014;-83
2021/01/17 18:16:56;;;;;;;10.02;2.50;;;16.30;55.70;;;;;;6227306;22;20514;-83
2021/01/17 18:19:22;;;;;;;11.90;2.85;;;16.30;55.70;;;;;;6227472;22;20008;-87
2021/01/17 18:21:48;;;;;;;10.05;2.72;;;16.30;55.70;;;;;;6227378;22;20296;-83
2021/01/17 18:24:14;;;;;;;12.40;2.40;;;16.30;55.70;;;;;;6227574;22;20016;-84
2021/01/17 18:26:40;;;;;;;12.63;2.92;;;16.30;55.60;;;;;;6227421;22;20069;-84
2021/01/17 18:29:06;;;;;;;15.63;3.83;;;16.30;55.60;;;;;;6252495;22;20087;-83
2021/01/17 18:31:32;;;;;;;9.93;2.20;;;16.20;55.60;;;;;;6227038;22;20031;-83
2021/01/17 18:33:58;;;;;;;9.63;2.67;;;16.20;55.50;;;;;;6227156;22;20066;-84
2021/01/17 18:36:24;;;;;;;9.85;2.22;;;16.20;55.50;;;;;;6227583;22;20036;-82
2021/01/17 18:38:50;;;;;;;11.77;3.17;;;16.20;55.50;;;;;;6227346;22;20020;-83
2021/01/17 18:41:16;;;;;;;13.30;3.10;;;16.20;55.50;;;;;;6227140;22;20011;-84
2021/01/17 18:43:42;;;;;;;10.55;3.22;;;16.10;55.40;;;;;;6227328;22;20030;-84
2021/01/17 18:46:08;;;;;;;10.00;2.72;;;16.10;55.40;;;;;;6227074;22;20061;-84
2021/01/17 18:48:34;;;;;;;12.93;2.97;;;16.10;55.30;;;;;;6226711;22;20054;-87
2021/01/17 18:50:59;;;;;;;10.18;2.28;;;16.10;55.30;;;;;;6226813;22;20023;-85
2021/01/17 18:53:26;;;;;;;9.45;2.50;;;16.10;55.30;;;;;;6227092;22;20015;-87
2021/01/17 18:55:52;;;;;;;9.93;2.75;;;16.00;55.20;;;;;;6226838;22;20463;-85
2021/01/17 18:58:17;;;;;;;11.13;2.42;;;16.00;55.10;;;;;;6227257;22;20012;-83
2021/01/17 19:00:43;;;;;;;11.32;2.38;;;16.00;55.10;;;;;;6226657;22;20039;-82
2021/01/17 19:03:09;;;;;;;8.98;2.30;;;16.00;54.90;;;;;;6227052;22;20293;-83
2021/01/17 19:05:35;;;;;;;13.82;2.85;;;16.00;55.00;;;;;;6221140;23;20012;-84
2021/01/17 20:10:45;;;;;;;11.48;2.90;;;15.40;53.60;;;;;;6239488;22;20015;-81
2021/01/17 20:37:08;;;;;;;9.18;2.13;;;15.10;54.60;;;;;;5768478;24;20038;-83
2021/01/17 20:40:06;;;;;;;13.63;2.67;;;15.10;54.70;;;;;;5782508;24;20029;-84
2021/01/17 20:43:13;;;;;;;19.23;3.00;;;15.20;54.90;;;;;;5825171;24;20018;-81
2021/01/17 20:45:39;;;;;;;13.75;2.85;;;15.20;54.90;;;;;;5833711;24;20069;-80
2021/01/17 20:52:03;;;;;;;10.48;2.42;;;15.20;54.70;;;;;;5994657;23;20023;-82
2021/01/17 20:58:54;;;;;;;11.40;2.90;;;15.30;54.70;;;;;;6154872;23;20052;-81
2021/01/17 21:05:46;;;;;;;13.27;2.90;;;15.20;54.60;;;;;;5988070;23;20020;-81
2021/01/17 21:12:47;;;;;;;;;;;15.10;54.80;;;;;;6151584;23;20097;-82
2021/01/17 21:15:34;;;;;;;13.27;2.97;;;15.00;54.90;;;;;;6248055;23;19912;-81
2021/01/17 21:18:24;;;;;;;14.48;3.88;;;15.00;55.00;;;;;;6246429;22;20468;-87
2021/01/17 21:20:54;;;;;;;14.73;3.35;;;15.00;55.10;;;;;;6224419;22;20278;-82
2021/01/17 21:23:23;;;;;;;30.33;5.28;;;15.00;55.20;;;;;;6226926;22;20012;-82
2021/01/17 21:26:10;;;;;;;19.27;4.55;;;15.00;55.10;;;;;;6226199;22;20046;-84
2021/01/17 21:28:57;;;;;;;23.67;5.63;;;15.10;55.20;;;;;;6226983;22;20355;-83
2021/01/17 21:32:00;;;;;;;21.17;5.40;;;15.10;55.10;;;;;;6253216;22;20016;-83
2021/01/17 21:43:41;;;;;;;;;;;;;;;;;;;;;
2021/01/17 21:47:01;;;;;;;14.45;4.10;;;15.10;54.60;;;;;;6134112;23;20481;-85
2021/01/17 21:50:46;;;;;;;;;;;;;;;;;;;;;
2021/01/17 21:58:04;;;;;;;13.43;3.45;;;15.10;54.20;;;;;;6185879;23;20020;-85
2021/01/17 22:01:48;;;;;;;9.32;2.92;;;15.00;54.00;;;;;;6197944;22;20023;-83
2021/01/17 22:25:27;;;;;;;12.43;2.78;;;15.00;54.20;;;;;;5898329;24;20034;-85
2021/01/17 22:36:25;;;;;;;11.68;4.15;;;14.90;53.50;;;;;;6153311;23;20036;-84
2021/01/17 22:39:27;;;;;;;13.98;4.00;;;14.90;53.40;;;;;;6132582;23;20053;-83
2021/01/17 22:43:11;;;;;;;14.63;3.53;;;14.90;53.50;;;;;;6133238;23;20556;-85
2021/01/17 22:50:23;;;;;;;11.85;3.25;;;14.90;53.20;;;;;;6101726;23;20029;-83
2021/01/17 23:00:38;;;;;;;;;;;;;;;;;;;;;
2021/01/17 23:03:56;;;;;;;15.57;4.15;;;14.90;52.80;;;;;;6125613;23;20022;-83
2021/01/17 23:18:15;;;;;;;8.73;2.47;;;14.80;53.30;;;;;;6125690;23;20069;-82
2021/01/17 23:22:07;;;;;;;11.38;3.28;;;14.80;53.20;;;;;;6246078;23;20099;-83
2021/01/17 23:25:50;;;;;;;;;;;;;;;;;;;;;
2021/01/17 23:32:43;;;;;;;8.85;2.85;;;14.80;52.90;;;;;;6228891;22;20016;-87
2021/01/17 23:40:19;;;;;;;10.65;1.98;;;14.80;52.70;;;;;;6148791;22;20038;-83
2021/01/17 23:43:53;;;;;;;8.75;1.95;;;14.80;52.70;;;;;;6238949;23;20340;-84
2021/01/17 23:47:09;;;;;;;9.68;2.75;;;14.80;52.60;;;;;;6207289;23;20051;-85
2021/01/17 23:50:45;;;;;;;;;;;;;;;;;;;;;
